Bretzville, Indiana
Current Conditions -  °F | °C
As of 6:35 PM on Sunday 25 Jan 2015 (Local Time) from KHNB Reporting Station
Broken Clouds Broken Clouds  
Wind Chill: 39°   Ceiling: 4800
Heat Index: 39°   Visibility: 10mi
Dew Point: 36°   Wind: 0mph
Humidity: 87%   Direction: NA
Pressure: 29.67"   Gusts: NA
Location:  38.3038°N, 86.9615°W
Report Text: KHNB 260035Z AUTO 00000KT 10SM FEW021 SCT036 BKN048 04/02 A2967 RMK AO1 P0001
Loading
Personal Weather Stations






























Interactive Weather Map New forecast layout! Learn more

10-Day Weather Forecast

Advertisements
Track Severe Weather on mobile